createdAt,value
2018-08-12T00:00:48.439Z,9.45
2018-08-12T00:03:17.374Z,8.35
2018-08-12T00:05:46.338Z,10.25
2018-08-12T00:08:15.287Z,9.20
2018-08-12T00:10:44.362Z,10.53
2018-08-12T00:13:13.315Z,9.58
2018-08-12T00:15:42.314Z,9.10
2018-08-12T00:18:11.295Z,8.78
2018-08-12T00:20:40.230Z,9.78
2018-08-12T00:23:09.234Z,9.63
2018-08-12T00:25:38.154Z,9.73
2018-08-12T00:28:07.142Z,9.63
2018-08-12T00:30:36.091Z,9.25
2018-08-12T00:33:05.074Z,10.30
2018-08-12T00:35:34.064Z,10.15
2018-08-12T00:38:03.075Z,9.70
2018-08-12T00:40:32.026Z,10.10
2018-08-12T00:43:01.014Z,10.53
2018-08-12T00:45:29.989Z,10.15
2018-08-12T00:47:58.938Z,10.00
2018-08-12T00:50:27.906Z,9.55
2018-08-12T00:52:56.850Z,10.28
2018-08-12T00:55:25.834Z,10.28
2018-08-12T00:57:54.777Z,10.55
2018-08-12T01:00:23.979Z,11.00
2018-08-12T01:02:52.883Z,10.15
2018-08-12T01:05:21.785Z,10.25
2018-08-12T01:07:51.203Z,10.48
2018-08-12T01:10:20.686Z,10.90
2018-08-12T01:12:49.709Z,10.15
2018-08-12T01:15:20.470Z,10.93
2018-08-12T01:17:49.450Z,9.90
2018-08-12T01:20:23.254Z,9.70
2018-08-12T01:22:52.266Z,10.45
2018-08-12T01:25:21.554Z,10.60
2018-08-12T01:27:50.520Z,10.82
2018-08-12T01:30:20.719Z,10.70
2018-08-12T01:32:49.950Z,10.55
2018-08-12T01:35:19.271Z,10.03
2018-08-12T01:37:48.887Z,10.53
2018-08-12T01:40:18.669Z,10.10
2018-08-12T01:42:47.894Z,11.05
2018-08-12T01:45:17.942Z,10.50
2018-08-12T01:47:46.926Z,10.08
2018-08-12T01:50:17.217Z,9.30
2018-08-12T01:52:46.226Z,10.45
2018-08-12T01:55:15.378Z,10.95
2018-08-12T01:57:44.296Z,10.43
2018-08-12T02:00:14.666Z,10.28
2018-08-12T02:02:43.682Z,11.53
2018-08-12T02:05:12.664Z,10.90
2018-08-12T02:07:41.698Z,11.43
2018-08-12T02:10:11.041Z,10.65
2018-08-12T02:12:40.378Z,10.72
2018-08-12T02:15:10.577Z,12.10
2018-08-12T02:17:39.825Z,13.95
2018-08-12T02:20:09.542Z,13.18
2018-08-12T02:22:39.254Z,13.50
2018-08-12T02:25:08.555Z,13.03
2018-08-12T02:27:37.506Z,12.07
2018-08-12T02:30:07.109Z,13.22
2018-08-12T02:32:36.079Z,13.25
2018-08-12T02:35:05.158Z,12.68
2018-08-12T02:37:34.094Z,12.90
2018-08-12T02:40:03.052Z,12.85
2018-08-12T02:42:32.071Z,13.50
2018-08-12T02:45:01.031Z,13.45
2018-08-12T02:47:30.148Z,15.80
2018-08-12T02:49:59.063Z,15.95
2018-08-12T02:52:28.003Z,16.90
2018-08-12T02:54:56.939Z,14.15
2018-08-12T02:57:25.983Z,15.08
2018-08-12T02:59:54.938Z,15.03
2018-08-12T03:02:23.861Z,16.17
2018-08-12T03:04:52.834Z,14.33
2018-08-12T03:07:21.790Z,16.57
2018-08-12T03:09:50.682Z,15.25
2018-08-12T03:12:19.625Z,15.88
2018-08-12T03:14:48.559Z,14.75
2018-08-12T03:17:17.491Z,14.70
2018-08-12T03:19:46.450Z,13.50
2018-08-12T03:22:15.429Z,14.45
2018-08-12T03:24:44.338Z,14.60
2018-08-12T03:27:13.274Z,15.45
2018-08-12T03:29:42.236Z,14.78
2018-08-12T03:32:11.181Z,13.78
2018-08-12T03:34:40.078Z,15.48
2018-08-12T03:37:09.003Z,13.70
2018-08-12T03:39:37.943Z,13.93
2018-08-12T03:42:06.854Z,13.60
2018-08-12T03:44:35.834Z,14.40
2018-08-12T03:47:04.878Z,14.35
2018-08-12T03:49:33.826Z,14.85
2018-08-12T03:52:02.754Z,14.63
2018-08-12T03:54:31.726Z,13.72
2018-08-12T03:57:00.675Z,13.68
2018-08-12T03:59:29.579Z,14.23
2018-08-12T04:01:58.528Z,14.68
2018-08-12T04:04:27.474Z,16.45
2018-08-12T04:06:56.430Z,17.82
2018-08-12T04:09:25.615Z,16.73
2018-08-12T04:11:54.534Z,17.12
2018-08-12T04:14:23.442Z,16.95
2018-08-12T04:16:58.826Z,17.25
2018-08-12T04:19:28.527Z,16.82
2018-08-12T04:21:57.498Z,17.87
2018-08-12T04:24:26.718Z,17.32
2018-08-12T04:26:55.944Z,19.10
2018-08-12T04:29:25.285Z,19.52
2018-08-12T04:31:54.254Z,21.45
2018-08-12T04:34:23.906Z,20.80
2018-08-12T04:36:53.755Z,20.15
2018-08-12T04:39:23.284Z,19.40
2018-08-12T04:41:52.485Z,19.40
2018-08-12T04:44:21.739Z,19.27
2018-08-12T04:46:51.594Z,18.55
2018-08-12T04:49:21.266Z,19.55
2018-08-12T04:51:50.537Z,19.92
2018-08-12T04:54:20.087Z,20.17
2018-08-12T04:56:50.002Z,19.60
2018-08-12T04:59:19.365Z,19.10
2018-08-12T05:01:48.327Z,18.90
2018-08-12T05:04:17.870Z,20.32
2018-08-12T05:06:47.294Z,19.98
2018-08-12T05:09:16.842Z,18.40
2018-08-12T05:11:45.871Z,18.48
2018-08-12T05:14:15.185Z,18.37
2018-08-12T05:16:44.422Z,18.80
2018-08-12T05:19:14.320Z,18.80
2018-08-12T05:21:43.706Z,17.70
2018-08-12T05:24:12.954Z,16.35
2018-08-12T05:26:42.530Z,15.88
2018-08-12T05:29:12.012Z,16.37
